West Magic, Idaho
Current Conditions -  °F | °C
As of 7:53 PM on Friday 19 Dec 2014 (Local Time) from KJER Reporting Station
Broken Clouds Broken Clouds  
Wind Chill: 36°   Ceiling: 3300
Heat Index: 36°   Visibility: 10mi
Dew Point: 34°   Wind: 3mph
Humidity: 93%   Direction: 160°SSE
Pressure: 30.09"   Gusts: NA
Location:  42.9609°N, 114.301°W
Report Text: KJER 200253Z AUTO 16003KT 10SM BKN033 BKN095 02/01 A3009 RMK AO2 SLP206 60002 T00220011 53002
Loading
Personal Weather Stations






























Interactive Weather Map New forecast layout! Learn more

10-Day Weather Forecast

Advertisements
Track Severe Weather on mobile